PRIVATE WETTERSTATION BILLIGHEIM-ALLFELD                       ZURCK
Wetterdaten: Donnerstag, 22.05.2014
Datum Zeit Temp. A. Temp. A. min Temp. A. max Feuchte A. Luftdruck Regen Wind Richtung Richtung Sonnenschein ET Solar Taupunkt Windchill Windben Empfang
22.05.2014 00:00 20,1 C 20,1 C 20,2 C 57 % 1006,2 hPa 0,0 l/m 3,2 km/h (1 Bft) O 90 0 min 0,051 mm 0 W/m 11,3 C 20,1 C 14,5 km/h (3 Bft) 98 %
22.05.2014 00:10 20,1 C 20,1 C 20,2 C 59 % 1006,2 hPa 0,0 l/m 1,6 km/h (1 Bft) O-SO 112 0 min 0,000 mm 0 W/m 11,8 C 20,1 C 14,5 km/h (3 Bft) 97 %
22.05.2014 00:20 19,9 C 19,9 C 20,1 C 58 % 1006,4 hPa 0,0 l/m 1,6 km/h (1 Bft) SO 135 0 min 0,000 mm 0 W/m 11,4 C 19,9 C 9,7 km/h (2 Bft) 98 %
22.05.2014 00:30 19,7 C 19,7 C 19,9 C 60 % 1006,2 hPa 0,0 l/m 1,6 km/h (1 Bft) O 90 0 min 0,000 mm 0 W/m 11,7 C 19,7 C 11,3 km/h (2 Bft) 98 %
22.05.2014 00:40 19,4 C 19,4 C 19,7 C 60 % 1006,1 hPa 0,0 l/m 1,6 km/h (1 Bft) O-SO 112 0 min 0,000 mm 0 W/m 11,4 C 19,4 C 11,3 km/h (2 Bft) 98 %
22.05.2014 00:50 19,3 C 19,3 C 19,4 C 60 % 1006,4 hPa 0,0 l/m 1,6 km/h (1 Bft) O 90 0 min 0,000 mm 0 W/m 11,3 C 19,3 C 11,3 km/h (2 Bft) 98 %
22.05.2014 01:00 19,1 C 19,1 C 19,3 C 61 % 1006,3 hPa 0,0 l/m 0,0 km/h (0 Bft) O-SO 112 0 min 0,051 mm 0 W/m 11,4 C 19,1 C 6,4 km/h (2 Bft) 97 %
22.05.2014 01:10 18,9 C 18,9 C 19,1 C 62 % 1006,3 hPa 0,0 l/m 1,6 km/h (1 Bft) O-NO 67 0 min 0,000 mm 0 W/m 11,5 C 18,9 C 8,0 km/h (2 Bft) 98 %
22.05.2014 01:20 18,9 C 18,9 C 18,9 C 61 % 1006,2 hPa 0,0 l/m 3,2 km/h (1 Bft) O-SO 112 0 min 0,000 mm 0 W/m 11,2 C 18,9 C 14,5 km/h (3 Bft) 97 %
22.05.2014 01:30 18,9 C 18,9 C 18,9 C 62 % 1005,8 hPa 0,0 l/m 1,6 km/h (1 Bft) O 90 0 min 0,000 mm 0 W/m 11,5 C 18,9 C 11,3 km/h (2 Bft) 98 %
22.05.2014 01:40 19,0 C 18,9 C 19,0 C 60 % 1005,7 hPa 0,0 l/m 3,2 km/h (1 Bft) O-SO 112 0 min 0,000 mm 0 W/m 11,1 C 19,0 C 11,3 km/h (2 Bft) 97 %
22.05.2014 01:50 19,1 C 19,0 C 19,1 C 60 % 1005,7 hPa 0,0 l/m 1,6 km/h (1 Bft) O-SO 112 0 min 0,000 mm 0 W/m 11,1 C 19,1 C 9,7 km/h (2 Bft) 97 %
22.05.2014 02:00 18,9 C 18,9 C 19,1 C 60 % 1005,6 hPa 0,0 l/m 1,6 km/h (1 Bft) SO 135 0 min 0,051 mm 0 W/m 11,0 C 18,9 C 9,7 km/h (2 Bft) 97 %
22.05.2014 02:10 18,8 C 18,8 C 18,9 C 60 % 1005,7 hPa 0,0 l/m 1,6 km/h (1 Bft) O-SO 112 0 min 0,000 mm 0 W/m 10,9 C 18,8 C 14,5 km/h (3 Bft) 97 %
22.05.2014 02:20 18,7 C 18,7 C 18,8 C 61 % 1005,6 hPa 0,0 l/m 0,0 km/h (0 Bft) W 270 0 min 0,000 mm 0 W/m 11,0 C 18,7 C 4,8 km/h (1 Bft) 98 %
22.05.2014 02:30 18,5 C 18,5 C 18,7 C 62 % 1005,7 hPa 0,0 l/m 1,6 km/h (1 Bft) NW 315 0 min 0,000 mm 0 W/m 11,1 C 18,5 C 4,8 km/h (1 Bft) 96 %
22.05.2014 02:40 17,9 C 17,9 C 18,6 C 64 % 1005,7 hPa 0,0 l/m 0,0 km/h (0 Bft) NW 315 0 min 0,000 mm 0 W/m 11,0 C 17,9 C 1,6 km/h (1 Bft) 98 %
22.05.2014 02:50 17,5 C 17,5 C 17,9 C 65 % 1005,6 hPa 0,0 l/m 1,6 km/h (1 Bft) NW 315 0 min 0,000 mm 0 W/m 10,8 C 17,5 C 6,4 km/h (2 Bft) 97 %
22.05.2014 03:00 17,2 C 17,2 C 17,5 C 67 % 1005,9 hPa 0,0 l/m 0,0 km/h (0 Bft) N-NW 337 0 min 0,025 mm 0 W/m 11,0 C 17,2 C 1,6 km/h (1 Bft) 97 %
22.05.2014 03:10 16,9 C 16,9 C 17,2 C 68 % 1006,1 hPa 0,0 l/m 0,0 km/h (0 Bft) N-NW 337 0 min 0,000 mm 0 W/m 11,0 C 16,9 C 1,6 km/h (1 Bft) 98 %
22.05.2014 03:20 16,6 C 16,6 C 16,9 C 70 % 1006,3 hPa 0,0 l/m 0,0 km/h (0 Bft) N 360 0 min 0,000 mm 0 W/m 11,1 C 16,6 C 1,6 km/h (1 Bft) 97 %
22.05.2014 03:30 16,3 C 16,3 C 16,6 C 70 % 1006,3 hPa 0,0 l/m 0,0 km/h (0 Bft) N 360 0 min 0,000 mm 0 W/m 10,8 C 16,3 C 1,6 km/h (1 Bft) 98 %
22.05.2014 03:40 16,0 C 16,0 C 16,3 C 71 % 1006,3 hPa 0,0 l/m 0,0 km/h (0 Bft) N 360 0 min 0,000 mm 0 W/m 10,7 C 16,0 C 1,6 km/h (1 Bft) 97 %
22.05.2014 03:50 15,8 C 15,7 C 16,0 C 72 % 1006,4 hPa 0,0 l/m 0,0 km/h (0 Bft) N 360 0 min 0,000 mm 0 W/m 10,8 C 15,8 C 1,6 km/h (1 Bft) 97 %
22.05.2014 04:00 15,4 C 15,4 C 15,8 C 74 % 1006,4 hPa 0,0 l/m 1,6 km/h (1 Bft) N 360 0 min 0,025 mm 0 W/m 10,8 C 15,4 C 6,4 km/h (2 Bft) 98 %
22.05.2014 04:10 15,1 C 15,1 C 15,4 C 75 % 1006,3 hPa 0,0 l/m 0,0 km/h (0 Bft) W 270 0 min 0,000 mm 0 W/m 10,7 C 15,1 C 1,6 km/h (1 Bft) 97 %
22.05.2014 04:20 15,0 C 15,0 C 15,1 C 76 % 1006,6 hPa 0,0 l/m 0,0 km/h (0 Bft) W 270 0 min 0,000 mm 0 W/m 10,8 C 15,0 C 3,2 km/h (1 Bft) 98 %
22.05.2014 04:30 14,8 C 14,7 C 15,0 C 76 % 1006,6 hPa 0,0 l/m 3,2 km/h (1 Bft) S-SW 202 0 min 0,000 mm 0 W/m 10,6 C 14,8 C 9,7 km/h (2 Bft) 97 %
22.05.2014 04:40 15,7 C 14,8 C 15,7 C 72 % 1006,7 hPa 0,0 l/m 6,4 km/h (2 Bft) S-SO 157 0 min 0,000 mm 0 W/m 10,7 C 15,7 C 16,1 km/h (3 Bft) 97 %
22.05.2014 04:50 16,3 C 15,8 C 16,3 C 71 % 1007,0 hPa 0,0 l/m 8,0 km/h (2 Bft) S-SO 157 0 min 0,000 mm 0 W/m 11,0 C 15,5 C 17,7 km/h (3 Bft) 97 %
22.05.2014 05:00 15,9 C 15,9 C 16,3 C 72 % 1007,1 hPa 0,0 l/m 6,4 km/h (2 Bft) S 180 0 min 0,025 mm 0 W/m 10,9 C 15,9 C 16,1 km/h (3 Bft) 98 %
22.05.2014 05:10 15,6 C 15,6 C 15,9 C 75 % 1007,2 hPa 0,0 l/m 6,4 km/h (2 Bft) S-SW 202 0 min 0,000 mm 0 W/m 11,2 C 15,6 C 14,5 km/h (3 Bft) 97 %
22.05.2014 05:20 15,6 C 15,6 C 15,7 C 75 % 1007,1 hPa 0,0 l/m 4,8 km/h (1 Bft) S-SW 202 0 min 0,000 mm 0 W/m 11,2 C 15,6 C 16,1 km/h (3 Bft) 97 %
22.05.2014 05:30 15,7 C 15,6 C 15,7 C 76 % 1007,2 hPa 0,0 l/m 3,2 km/h (1 Bft) S-SW 202 0 min 0,000 mm 0 W/m 11,5 C 15,7 C 11,3 km/h (2 Bft) 88 %
22.05.2014 05:40 15,8 C 15,7 C 15,8 C 77 % 1007,3 hPa 0,0 l/m 0,0 km/h (0 Bft) S-SW 202 0 min 0,000 mm 0 W/m 11,8 C 15,8 C 8,0 km/h (2 Bft) 96 %
22.05.2014 05:50 15,7 C 15,7 C 15,8 C 77 % 1007,3 hPa 0,0 l/m 0,0 km/h (0 Bft) O 90 0 min 0,000 mm 11 W/m 11,7 C 15,7 C 9,7 km/h (2 Bft) 98 %
22.05.2014 06:00 15,9 C 15,7 C 15,9 C 78 % 1007,4 hPa 0,0 l/m 0,0 km/h (0 Bft) W 270 0 min 0,025 mm 12 W/m 12,1 C 15,9 C 6,4 km/h (2 Bft) 97 %
22.05.2014 06:10 15,9 C 15,9 C 15,9 C 78 % 1007,3 hPa 0,0 l/m 0,0 km/h (0 Bft) W 270 0 min 0,000 mm 21 W/m 12,1 C 15,9 C 3,2 km/h (1 Bft) 98 %
22.05.2014 06:20 15,8 C 15,8 C 15,9 C 78 % 1007,6 hPa 0,0 l/m 1,6 km/h (1 Bft) W-SW 247 0 min 0,000 mm 28 W/m 12,0 C 15,8 C 11,3 km/h (2 Bft) 97 %
22.05.2014 06:30 15,8 C 15,8 C 15,9 C 78 % 1007,8 hPa 0,0 l/m 3,2 km/h (1 Bft) W 270 0 min 0,000 mm 35 W/m 12,0 C 15,8 C 16,1 km/h (3 Bft) 98 %
22.05.2014 06:40 15,9 C 15,8 C 15,9 C 78 % 1008,0 hPa 0,0 l/m 3,2 km/h (1 Bft) W-SW 247 0 min 0,000 mm 44 W/m 12,1 C 15,9 C 14,5 km/h (3 Bft) 98 %
22.05.2014 06:50 15,9 C 15,9 C 15,9 C 78 % 1008,0 hPa 0,0 l/m 0,0 km/h (0 Bft) W-SW 247 0 min 0,000 mm 51 W/m 12,1 C 15,9 C 4,8 km/h (1 Bft) 97 %
22.05.2014 07:00 15,9 C 15,8 C 15,9 C 78 % 1008,3 hPa 0,0 l/m 1,6 km/h (1 Bft) W 270 0 min 0,025 mm 58 W/m 12,1 C 15,9 C 9,7 km/h (2 Bft) 98 %
22.05.2014 07:10 15,9 C 15,9 C 15,9 C 77 % 1008,4 hPa 0,0 l/m 3,2 km/h (1 Bft) W-NW 292 0 min 0,000 mm 65 W/m 11,9 C 15,9 C 9,7 km/h (2 Bft) 97 %
22.05.2014 07:20 15,9 C 15,9 C 15,9 C 76 % 1008,4 hPa 0,0 l/m 2,4 km/h (1 Bft) W-SW 254 0 min 0,000 mm 70 W/m 11,7 C 15,9 C 9,7 km/h (2 Bft) 100 %
22.05.2014 07:30 16,0 C 15,9 C 16,0 C 77 % 1008,5 hPa 0,0 l/m 1,9 km/h (1 Bft) S-SW 213 0 min 0,000 mm 76 W/m 12,0 C 16,0 C 9,7 km/h (2 Bft) 100 %
22.05.2014 07:40 16,0 C 16,0 C 16,0 C 75 % 1008,3 hPa 0,0 l/m 4,4 km/h (1 Bft) W-SW 256 0 min 0,000 mm 79 W/m 11,6 C 16,0 C 9,7 km/h (2 Bft) 100 %
22.05.2014 07:50 16,1 C 16,0 C 16,1 C 75 % 1008,4 hPa 0,0 l/m 3,2 km/h (1 Bft) W-SW 257 0 min 0,000 mm 86 W/m 11,7 C 16,1 C 11,3 km/h (2 Bft) 100 %
22.05.2014 08:00 16,2 C 16,1 C 16,2 C 74 % 1008,5 hPa 0,0 l/m 1,8 km/h (1 Bft) W 267 0 min 0,001 mm 95 W/m 11,6 C 16,2 C 9,7 km/h (2 Bft) 100 %
22.05.2014 08:10 16,4 C 16,2 C 16,4 C 76 % 1008,5 hPa 0,0 l/m 0,6 km/h (0 Bft) SW 215 10 min 0,000 mm 181 W/m 12,2 C 16,4 C 8,0 km/h (2 Bft) 100 %
22.05.2014 08:20 16,8 C 16,4 C 16,8 C 73 % 1008,5 hPa 0,0 l/m 3,5 km/h (1 Bft) S-SW 211 10 min 0,000 mm 294 W/m 11,9 C 16,8 C 8,0 km/h (2 Bft) 100 %
22.05.2014 08:30 17,3 C 16,8 C 17,3 C 71 % 1008,6 hPa 0,0 l/m 4,8 km/h (1 Bft) S-SW 201 10 min 0,000 mm 330 W/m 12,0 C 17,3 C 12,9 km/h (3 Bft) 100 %
22.05.2014 08:40 17,8 C 17,3 C 17,8 C 71 % 1008,6 hPa 0,0 l/m 2,7 km/h (1 Bft) SW 217 10 min 0,000 mm 364 W/m 12,5 C 17,8 C 8,0 km/h (2 Bft) 100 %
22.05.2014 08:50 18,3 C 17,8 C 18,3 C 71 % 1008,7 hPa 0,0 l/m 2,6 km/h (1 Bft) S-SW 211 10 min 0,000 mm 397 W/m 12,9 C 18,3 C 8,0 km/h (2 Bft) 100 %
22.05.2014 09:00 18,9 C 18,3 C 18,9 C 69 % 1008,7 hPa 0,0 l/m 1,8 km/h (1 Bft) SW 230 10 min 0,178 mm 424 W/m 13,1 C 18,9 C 8,0 km/h (2 Bft) 91 %
22.05.2014 09:10 19,3 C 18,9 C 19,3 C 65 % 1008,8 hPa 0,0 l/m 0,6 km/h (0 Bft) S-SW 199 10 min 0,000 mm 455 W/m 12,6 C 19,3 C 4,8 km/h (1 Bft) 100 %
22.05.2014 09:20 19,5 C 19,3 C 19,6 C 66 % 1008,7 hPa 0,0 l/m 1,6 km/h (1 Bft) S 183 10 min 0,000 mm 482 W/m 13,0 C 19,5 C 6,4 km/h (2 Bft) 100 %
22.05.2014 09:30 19,7 C 19,4 C 19,7 C 67 % 1008,6 hPa 0,0 l/m 1,2 km/h (1 Bft) S 181 10 min 0,000 mm 510 W/m 13,4 C 19,7 C 8,0 km/h (2 Bft) 100 %
22.05.2014 09:40 19,9 C 19,7 C 19,9 C 64 % 1008,5 hPa 0,0 l/m 0,5 km/h (0 Bft) S 182 10 min 0,000 mm 540 W/m 12,9 C 19,9 C 6,4 km/h (2 Bft) 100 %
22.05.2014 09:50 20,2 C 19,9 C 20,2 C 66 % 1008,4 hPa 0,0 l/m 0,2 km/h (0 Bft) S-SW 193 10 min 0,000 mm 564 W/m 13,6 C 20,2 C 4,8 km/h (1 Bft) 100 %
22.05.2014 10:00 20,8 C 20,2 C 20,8 C 65 % 1008,4 hPa 0,0 l/m 0,5 km/h (0 Bft) S 190 10 min 0,305 mm 587 W/m 14,0 C 20,8 C 6,4 km/h (2 Bft) 100 %
22.05.2014 10:10 21,3 C 20,8 C 21,3 C 62 % 1008,4 hPa 0,0 l/m 0,1 km/h (0 Bft) S-SW 196 10 min 0,000 mm 612 W/m 13,7 C 21,3 C 1,6 km/h (1 Bft) 100 %
22.05.2014 10:20 22,1 C 21,3 C 22,1 C 62 % 1008,4 hPa 0,0 l/m 0,7 km/h (0 Bft) S-SW 203 10 min 0,000 mm 636 W/m 14,5 C 22,1 C 6,4 km/h (2 Bft) 99 %
22.05.2014 10:30 22,6 C 22,1 C 22,6 C 57 % 1008,4 hPa 0,0 l/m 0,5 km/h (0 Bft) S-SW 194 10 min 0,000 mm 656 W/m 13,6 C 22,6 C 6,4 km/h (2 Bft) 100 %
22.05.2014 10:40 22,8 C 22,5 C 22,8 C 60 % 1008,4 hPa 0,0 l/m 1,0 km/h (0 Bft) SW 232 10 min 0,000 mm 677 W/m 14,6 C 22,8 C 6,4 km/h (2 Bft) 100 %
22.05.2014 10:50 23,2 C 22,8 C 23,2 C 59 % 1008,4 hPa 0,0 l/m 1,3 km/h (1 Bft) SW 216 10 min 0,000 mm 694 W/m 14,7 C 23,2 C 8,0 km/h (2 Bft) 100 %
22.05.2014 11:00 23,1 C 23,1 C 23,2 C 56 % 1008,3 hPa 0,0 l/m 0,3 km/h (0 Bft) S-SW 197 10 min 0,406 mm 717 W/m 13,8 C 23,1 C 6,4 km/h (2 Bft) 100 %
22.05.2014 11:10 23,4 C 23,1 C 23,4 C 58 % 1008,4 hPa 0,0 l/m 2,1 km/h (1 Bft) S-SW 207 10 min 0,000 mm 687 W/m 14,7 C 23,4 C 9,7 km/h (2 Bft) 100 %
22.05.2014 11:20 23,3 C 23,3 C 23,5 C 57 % 1008,5 hPa 0,0 l/m 1,3 km/h (1 Bft) S-SW 196 10 min 0,000 mm 707 W/m 14,3 C 23,3 C 9,7 km/h (2 Bft) 100 %
22.05.2014 11:30 23,2 C 23,2 C 23,4 C 58 % 1008,5 hPa 0,0 l/m 1,5 km/h (1 Bft) S 186 10 min 0,000 mm 729 W/m 14,5 C 23,2 C 11,3 km/h (2 Bft) 99 %
22.05.2014 11:40 23,3 C 23,2 C 23,3 C 59 % 1008,4 hPa 0,0 l/m 1,2 km/h (1 Bft) S-SW 201 10 min 0,000 mm 663 W/m 14,8 C 23,3 C 9,7 km/h (2 Bft) 99 %
22.05.2014 11:50 23,5 C 23,3 C 23,5 C 57 % 1008,4 hPa 0,0 l/m 1,6 km/h (1 Bft) S-SW 201 10 min 0,000 mm 803 W/m 14,5 C 23,5 C 8,0 km/h (2 Bft) 100 %
22.05.2014 12:00 23,6 C 23,5 C 23,7 C 58 % 1008,6 hPa 0,0 l/m 1,6 km/h (1 Bft) S 187 10 min 0,432 mm 900 W/m 14,8 C 23,6 C 9,7 km/h (2 Bft) 100 %
22.05.2014 12:10 23,7 C 23,6 C 23,7 C 58 % 1008,5 hPa 0,0 l/m 2,4 km/h (1 Bft) O-SO 122 10 min 0,000 mm 587 W/m 14,9 C 23,7 C 11,3 km/h (2 Bft) 100 %
22.05.2014 12:20 23,5 C 23,4 C 23,7 C 60 % 1008,5 hPa 0,0 l/m 0,0 km/h (0 Bft) S-SW 192 10 min 0,000 mm 638 W/m 15,3 C 23,5 C 1,6 km/h (1 Bft) 100 %
22.05.2014 12:30 23,7 C 23,5 C 23,7 C 57 % 1008,5 hPa 0,0 l/m 1,2 km/h (1 Bft) S-SO 157 10 min 0,000 mm 744 W/m 14,7 C 23,7 C 8,0 km/h (2 Bft) 100 %
22.05.2014 12:40 24,1 C 23,7 C 24,1 C 57 % 1008,4 hPa 0,0 l/m 1,6 km/h (1 Bft) S 186 10 min 0,000 mm 705 W/m 15,0 C 24,1 C 8,0 km/h (2 Bft) 100 %
22.05.2014 12:50 24,3 C 24,0 C 24,3 C 54 % 1008,3 hPa 0,0 l/m 1,3 km/h (1 Bft) W-NW 286 10 min 0,000 mm 626 W/m 14,4 C 24,3 C 6,4 km/h (2 Bft) 100 %
22.05.2014 13:00 24,8 C 24,3 C 24,8 C 56 % 1008,0 hPa 0,0 l/m 1,6 km/h (1 Bft) NW 316 10 min 0,432 mm 622 W/m 15,4 C 24,8 C 6,4 km/h (2 Bft) 100 %
22.05.2014 13:10 25,5 C 24,8 C 25,5 C 58 % 1007,8 hPa 0,0 l/m 1,6 km/h (1 Bft) N-NW 337 10 min 0,000 mm 795 W/m 16,6 C 25,5 C 6,4 km/h (2 Bft) 100 %
22.05.2014 13:20 25,6 C 25,5 C 25,7 C 56 % 1007,6 hPa 0,0 l/m 0,7 km/h (0 Bft) O-NO 69 10 min 0,000 mm 661 W/m 16,2 C 25,6 C 4,8 km/h (1 Bft) 100 %
22.05.2014 13:30 25,7 C 25,6 C 25,7 C 56 % 1007,5 hPa 0,0 l/m 0,2 km/h (0 Bft) O-SO 123 10 min 0,000 mm 919 W/m 16,2 C 25,7 C 4,8 km/h (1 Bft) 100 %
22.05.2014 13:40 26,0 C 25,7 C 26,0 C 55 % 1007,6 hPa 0,0 l/m 0,5 km/h (0 Bft) NW 306 10 min 0,000 mm 826 W/m 16,2 C 26,0 C 6,4 km/h (2 Bft) 100 %
22.05.2014 13:50 26,2 C 26,0 C 26,2 C 54 % 1007,6 hPa 0,0 l/m 1,7 km/h (1 Bft) NW 315 10 min 0,000 mm 740 W/m 16,1 C 26,2 C 8,0 km/h (2 Bft) 100 %
22.05.2014 14:00 26,2 C 26,2 C 26,4 C 55 % 1007,6 hPa 0,0 l/m 2,0 km/h (1 Bft) SO 127 10 min 0,508 mm 849 W/m 16,4 C 26,2 C 9,7 km/h (2 Bft) 100 %
22.05.2014 14:10 26,0 C 25,9 C 26,2 C 56 % 1007,5 hPa 0,0 l/m 3,3 km/h (1 Bft) S-SO 151 10 min 0,000 mm 861 W/m 16,5 C 26,0 C 12,9 km/h (3 Bft) 100 %
22.05.2014 14:20 26,4 C 26,0 C 26,4 C 56 % 1007,5 hPa 0,0 l/m 1,0 km/h (0 Bft) O-SO 112 10 min 0,000 mm 768 W/m 16,9 C 26,4 C 9,7 km/h (2 Bft) 100 %
22.05.2014 14:30 26,8 C 26,4 C 26,8 C 57 % 1007,4 hPa 0,0 l/m 0,8 km/h (0 Bft) SW 223 10 min 0,000 mm 733 W/m 17,6 C 26,8 C 8,0 km/h (2 Bft) 100 %
22.05.2014 14:40 27,1 C 26,8 C 27,1 C 53 % 1007,3 hPa 0,0 l/m 0,7 km/h (0 Bft) S-SO 160 10 min 0,000 mm 863 W/m 16,7 C 27,1 C 6,4 km/h (2 Bft) 100 %
22.05.2014 14:50 27,2 C 27,1 C 27,2 C 47 % 1007,2 hPa 0,0 l/m 0,9 km/h (0 Bft) O-SO 103 10 min 0,000 mm 468 W/m 14,9 C 27,2 C 6,4 km/h (2 Bft) 100 %
22.05.2014 15:00 27,0 C 27,0 C 27,2 C 51 % 1007,0 hPa 0,0 l/m 1,0 km/h (0 Bft) S-SO 152 10 min 0,483 mm 643 W/m 16,0 C 27,0 C 8,0 km/h (2 Bft) 100 %
22.05.2014 15:10 26,9 C 26,9 C 27,0 C 53 % 1006,9 hPa 0,0 l/m 0,3 km/h (0 Bft) W-NW 302 10 min 0,000 mm 503 W/m 16,5 C 26,9 C 4,8 km/h (1 Bft) 100 %
22.05.2014 15:20 26,6 C 26,6 C 26,9 C 52 % 1006,5 hPa 0,0 l/m 0,8 km/h (0 Bft) O-SO 119 10 min 0,000 mm 424 W/m 15,9 C 26,6 C 6,4 km/h (2 Bft) 100 %
22.05.2014 15:30 26,4 C 26,4 C 26,6 C 55 % 1006,6 hPa 0,0 l/m 0,2 km/h (0 Bft) W-SW 248 10 min 0,000 mm 381 W/m 16,6 C 26,4 C 3,2 km/h (1 Bft) 100 %
22.05.2014 15:40 26,5 C 26,4 C 26,5 C 58 % 1006,4 hPa 0,0 l/m 0,1 km/h (0 Bft) W-SW 257 10 min 0,000 mm 585 W/m 17,5 C 26,5 C 3,2 km/h (1 Bft) 100 %
22.05.2014 15:50 26,7 C 26,5 C 26,7 C 54 % 1006,1 hPa 0,0 l/m 0,2 km/h (0 Bft) O-SO 106 10 min 0,000 mm 371 W/m 16,6 C 26,7 C 6,4 km/h (2 Bft) 100 %
22.05.2014 16:00 26,7 C 26,7 C 26,8 C 55 % 1006,1 hPa 0,0 l/m 0,1 km/h (0 Bft) SW 236 10 min 0,304 mm 432 W/m 16,9 C 26,7 C 3,2 km/h (1 Bft) 100 %
22.05.2014 16:10 26,9 C 26,7 C 26,9 C 57 % 1006,1 hPa 0,0 l/m 0,1 km/h (0 Bft) SW 226 10 min 0,000 mm 601 W/m 17,6 C 26,9 C 1,6 km/h (1 Bft) 100 %
22.05.2014 16:20 27,0 C 26,9 C 27,1 C 53 % 1006,1 hPa 0,0 l/m 0,3 km/h (0 Bft) N-NW 342 10 min 0,000 mm 628 W/m 16,6 C 27,0 C 6,4 km/h (2 Bft) 100 %
22.05.2014 16:30 27,0 C 27,0 C 27,0 C 53 % 1006,0 hPa 0,0 l/m 0,1 km/h (0 Bft) NW 307 10 min 0,000 mm 425 W/m 16,6 C 27,0 C 1,6 km/h (1 Bft) 100 %
22.05.2014 16:40 26,9 C 26,9 C 27,0 C 53 % 1006,1 hPa 0,0 l/m 0,1 km/h (0 Bft) NW 307 10 min 0,000 mm 563 W/m 16,5 C 26,9 C 4,8 km/h (1 Bft) 100 %
22.05.2014 16:50 27,1 C 26,9 C 27,1 C 53 % 1005,9 hPa 0,0 l/m 0,0 km/h (0 Bft) NW 309 10 min 0,000 mm 610 W/m 16,7 C 27,1 C 1,6 km/h (1 Bft) 100 %
22.05.2014 17:00 27,3 C 27,1 C 27,3 C 50 % 1005,9 hPa 0,0 l/m 0,1 km/h (0 Bft) S-SW 213 10 min 0,331 mm 214 W/m 15,9 C 27,3 C 1,6 km/h (1 Bft) 100 %
22.05.2014 17:10 27,1 C 27,1 C 27,3 C 53 % 1005,9 hPa 0,0 l/m 0,2 km/h (0 Bft) NW 316 10 min 0,000 mm 292 W/m 16,7 C 27,1 C 6,4 km/h (2 Bft) 100 %
22.05.2014 17:20 27,2 C 27,1 C 27,2 C 52 % 1005,8 hPa 0,0 l/m 0,0 km/h (0 Bft) NW 318 10 min 0,000 mm 346 W/m 16,5 C 27,2 C 1,6 km/h (1 Bft) 100 %
22.05.2014 17:30 27,3 C 27,2 C 27,3 C 50 % 1005,8 hPa 0,0 l/m 0,0 km/h (0 Bft) N-NO 14 10 min 0,000 mm 190 W/m 15,9 C 27,3 C 1,6 km/h (1 Bft) 100 %
22.05.2014 17:40 27,1 C 27,1 C 27,3 C 52 % 1005,8 hPa 0,0 l/m 0,0 km/h (0 Bft) N-NO 14 10 min 0,000 mm 220 W/m 16,4 C 27,1 C 1,6 km/h (1 Bft) 100 %
22.05.2014 17:50 26,7 C 26,7 C 27,1 C 53 % 1005,6 hPa 0,0 l/m 0,0 km/h (0 Bft) N 9 10 min 0,000 mm 221 W/m 16,3 C 26,7 C 1,6 km/h (1 Bft) 100 %
22.05.2014 18:00 26,2 C 26,2 C 26,7 C 59 % 1005,6 hPa 0,0 l/m 0,6 km/h (0 Bft) N-NW 333 10 min 0,177 mm 220 W/m 17,5 C 26,2 C 8,0 km/h (2 Bft) 100 %
22.05.2014 18:10 25,7 C 25,7 C 26,2 C 60 % 1005,7 hPa 0,0 l/m 1,5 km/h (1 Bft) N-NW 331 0 min 0,000 mm 132 W/m 17,3 C 25,7 C 8,0 km/h (2 Bft) 100 %
22.05.2014 18:20 25,1 C 25,1 C 25,7 C 59 % 1005,8 hPa 0,0 l/m 0,3 km/h (0 Bft) N-NW 330 0 min 0,000 mm 104 W/m 16,5 C 25,1 C 8,0 km/h (2 Bft) 100 %
22.05.2014 18:30 24,6 C 24,6 C 25,1 C 63 % 1005,9 hPa 0,0 l/m 0,5 km/h (0 Bft) NW 319 0 min 0,000 mm 118 W/m 17,1 C 24,6 C 6,4 km/h (2 Bft) 100 %
22.05.2014 18:40 24,4 C 24,4 C 24,6 C 63 % 1005,7 hPa 0,0 l/m 0,3 km/h (0 Bft) NW 312 0 min 0,000 mm 123 W/m 16,9 C 24,4 C 4,8 km/h (1 Bft) 100 %
22.05.2014 18:50 24,3 C 24,3 C 24,4 C 61 % 1005,8 hPa 0,0 l/m 0,8 km/h (0 Bft) NW 304 0 min 0,000 mm 100 W/m 16,3 C 24,3 C 6,4 km/h (2 Bft) 100 %
22.05.2014 19:00 24,4 C 24,3 C 24,4 C 59 % 1006,4 hPa 0,0 l/m 4,4 km/h (1 Bft) W-SW 246 0 min 0,077 mm 23 W/m 15,9 C 24,4 C 22,5 km/h (4 Bft) 100 %
22.05.2014 19:10 21,9 C 21,9 C 24,4 C 51 % 1007,2 hPa 0,0 l/m 29,2 km/h (5 Bft) NW 319 0 min 0,000 mm 21 W/m 11,3 C 17,5 C 64,4 km/h (8 Bft) 100 %
22.05.2014 19:20 20,4 C 20,4 C 21,9 C 55 % 1006,5 hPa 0,0 l/m 24,5 km/h (4 Bft) W-NW 284 0 min 0,000 mm 42 W/m 11,1 C 16,0 C 41,8 km/h (6 Bft) 100 %
22.05.2014 19:30 20,0 C 20,0 C 20,4 C 57 % 1006,7 hPa 0,0 l/m 15,4 km/h (3 Bft) NW 313 0 min 0,000 mm 28 W/m 11,2 C 17,2 C 30,6 km/h (5 Bft) 100 %
22.05.2014 19:40 19,4 C 19,4 C 20,0 C 60 % 1007,3 hPa 0,0 l/m 15,9 km/h (3 Bft) W-NW 288 0 min 0,000 mm 25 W/m 11,4 C 16,3 C 37,0 km/h (5 Bft) 100 %
22.05.2014 19:50 18,4 C 18,4 C 19,4 C 65 % 1008,0 hPa 0,0 l/m 14,2 km/h (3 Bft) W-NW 294 0 min 0,000 mm 16 W/m 11,7 C 15,5 C 32,2 km/h (5 Bft) 100 %
22.05.2014 20:00 17,6 C 17,6 C 18,4 C 68 % 1007,7 hPa 0,0 l/m 15,8 km/h (3 Bft) NW 317 0 min 0,127 mm 11 W/m 11,6 C 14,1 C 33,8 km/h (5 Bft) 100 %
22.05.2014 20:10 17,3 C 17,3 C 17,6 C 70 % 1007,7 hPa 0,0 l/m 10,3 km/h (2 Bft) W-NW 287 0 min 0,000 mm 18 W/m 11,8 C 15,5 C 24,1 km/h (4 Bft) 100 %
22.05.2014 20:20 16,9 C 16,9 C 17,3 C 72 % 1007,5 hPa 0,0 l/m 14,6 km/h (3 Bft) W-NW 295 0 min 0,000 mm 14 W/m 11,8 C 13,6 C 27,4 km/h (4 Bft) 100 %
22.05.2014 20:30 16,7 C 16,7 C 16,9 C 74 % 1007,4 hPa 0,0 l/m 11,4 km/h (2 Bft) W-NW 300 0 min 0,000 mm 11 W/m 12,0 C 14,4 C 29,0 km/h (5 Bft) 100 %
22.05.2014 20:40 16,4 C 16,4 C 16,7 C 76 % 1007,9 hPa 0,0 l/m 8,5 km/h (2 Bft) W-NW 297 0 min 0,000 mm 14 W/m 12,2 C 15,3 C 20,9 km/h (4 Bft) 100 %
22.05.2014 20:50 16,1 C 16,1 C 16,4 C 76 % 1008,3 hPa 0,0 l/m 5,3 km/h (1 Bft) W-NW 300 0 min 0,000 mm 11 W/m 11,9 C 16,1 C 16,1 km/h (3 Bft) 100 %
22.05.2014 21:00 16,0 C 16,0 C 16,1 C 75 % 1008,5 hPa 0,0 l/m 6,7 km/h (2 Bft) W 276 0 min 0,000 mm 5 W/m 11,6 C 15,8 C 16,1 km/h (3 Bft) 100 %
22.05.2014 21:10 16,0 C 16,0 C 16,0 C 76 % 1008,4 hPa 0,0 l/m 4,8 km/h (1 Bft) W-NW 292 0 min 0,000 mm 0 W/m 11,8 C 16,0 C 14,5 km/h (3 Bft) 100 %
22.05.2014 21:20 16,0 C 16,0 C 16,0 C 77 % 1008,9 hPa 0,0 l/m 6,4 km/h (2 Bft) W-NW 292 0 min 0,000 mm 0 W/m 12,0 C 16,0 C 16,1 km/h (3 Bft) 100 %
22.05.2014 21:30 15,9 C 15,9 C 16,0 C 77 % 1009,3 hPa 0,0 l/m 6,4 km/h (2 Bft) W-NW 292 0 min 0,000 mm 0 W/m 11,9 C 15,9 C 16,1 km/h (3 Bft) 100 %
22.05.2014 21:40 15,9 C 15,9 C 16,0 C 77 % 1009,7 hPa 0,0 l/m 8,0 km/h (2 Bft) W-NW 292 0 min 0,000 mm 0 W/m 11,9 C 15,0 C 20,9 km/h (4 Bft) 100 %
22.05.2014 21:50 16,0 C 15,9 C 16,0 C 75 % 1009,8 hPa 0,0 l/m 12,9 km/h (3 Bft) W 270 0 min 0,000 mm 0 W/m 11,6 C 13,1 C 30,6 km/h (5 Bft) 100 %
22.05.2014 22:00 16,0 C 16,0 C 16,0 C 74 % 1010,1 hPa 0,0 l/m 8,0 km/h (2 Bft) W-NW 292 0 min 0,025 mm 0 W/m 11,4 C 15,2 C 29,0 km/h (5 Bft) 100 %
22.05.2014 22:10 16,0 C 16,0 C 16,0 C 74 % 1010,3 hPa 0,0 l/m 9,7 km/h (2 Bft) W 270 0 min 0,000 mm 0 W/m 11,4 C 14,4 C 20,9 km/h (4 Bft) 100 %
22.05.2014 22:20 16,0 C 16,0 C 16,0 C 73 % 1010,1 hPa 0,0 l/m 9,7 km/h (2 Bft) W-NW 292 0 min 0,000 mm 0 W/m 11,2 C 14,4 C 24,1 km/h (4 Bft) 99 %
22.05.2014 22:30 15,9 C 15,9 C 16,0 C 73 % 1010,2 hPa 0,0 l/m 8,0 km/h (2 Bft) W-NW 292 0 min 0,000 mm 0 W/m 11,1 C 15,0 C 24,1 km/h (4 Bft) 99 %
22.05.2014 22:40 15,9 C 15,8 C 15,9 C 73 % 1009,9 hPa 0,0 l/m 8,0 km/h (2 Bft) NW 315 0 min 0,000 mm 0 W/m 11,1 C 15,0 C 22,5 km/h (4 Bft) 98 %
22.05.2014 22:50 15,7 C 15,7 C 15,8 C 74 % 1010,0 hPa 0,0 l/m 8,0 km/h (2 Bft) NW 315 0 min 0,000 mm 0 W/m 11,1 C 14,8 C 24,1 km/h (4 Bft) 98 %
22.05.2014 23:00 15,6 C 15,6 C 15,8 C 74 % 1009,8 hPa 0,0 l/m 9,7 km/h (2 Bft) NW 315 0 min 0,051 mm 0 W/m 11,0 C 13,9 C 19,3 km/h (3 Bft) 98 %
22.05.2014 23:10 15,6 C 15,6 C 15,7 C 75 % 1010,3 hPa 0,0 l/m 3,2 km/h (1 Bft) NW 315 0 min 0,000 mm 0 W/m 11,2 C 15,6 C 11,3 km/h (2 Bft) 98 %
22.05.2014 23:20 15,4 C 15,4 C 15,6 C 74 % 1010,5 hPa 0,0 l/m 3,2 km/h (1 Bft) NW 315 0 min 0,000 mm 0 W/m 10,8 C 15,4 C 9,7 km/h (2 Bft) 98 %
22.05.2014 23:30 15,3 C 15,3 C 15,4 C 73 % 1010,5 hPa 0,0 l/m 3,2 km/h (1 Bft) W-NW 292 0 min 0,000 mm 0 W/m 10,5 C 15,3 C 12,9 km/h (3 Bft) 97 %
22.05.2014 23:40 15,2 C 15,2 C 15,3 C 73 % 1010,7 hPa 0,0 l/m 3,2 km/h (1 Bft) W-NW 292 0 min 0,000 mm 0 W/m 10,4 C 15,2 C 9,7 km/h (2 Bft) 98 %
22.05.2014 23:50 15,2 C 15,2 C 15,2 C 72 % 1010,4 hPa 0,0 l/m 3,2 km/h (1 Bft) NW 315 0 min 0,000 mm 0 W/m 10,2 C 15,2 C 11,3 km/h (2 Bft) 97 %
_ Min-Zeit 04:30 04:30 04:30 14:50 02:00 - 01:00 - - - - - 23:50 21:50 02:40 05:30
Minimum _ 14,7 C 14,7 C 15,0 C 47 % 1005,6 hPa - 0,0 km/h (0 Bft) - - - - - 10,2 C 13,1 C 1,6 km/h (1 Bft) 88 %
_ Max-Zeit 17:00 17:30 17:00 06:00 23:40 00:00 19:10 - - 08:10 14:00 13:30 16:10 17:00 19:10 07:20
Maximum _ 27,3 C 27,2 C 27,3 C 78 % 1010,7 hPa 0,0 l/m 29,2 km/h
NW (5 Bft)
- - 10 min 0,508 mm 919 W/m 17,6 C 27,3 C 64,4 km/h
SW (8 Bft)
100 %
Durchschnitt _ 20,2 C 20,1 C 20,4 C 65 % 1007,5 hPa #0,0 l/m 3,1 km/h (1 Bft) W-NW - #10:00 h #4,115 mm 385 W/m 13,2 C 19,9 C 10,9 km/h (2 Bft) 99 %
PRIVATE WETTERSTATION BILLIGHEIM-ALLFELD - www.neckar-odenwald-wetter.de - Holger Sonntag